Time;durP1;ratioP1;P1;durP2;ratioP2;P2;SDS_P1;SDS_P2;PMS_P1;PMS_P2;Temp;Humidity;BMP_temperature;BMP_pressure;BME280_temperature;BME280_humidity;BME280_pressure;Samples;Min_cycle;Max_cycle;Signal;HPM_P1;HPM_P2
2021/11/01 00:00:19;;;;;;;4.25;2.65;;;22.80;96.20;;;;;;5073020;28;20134;-75
2021/11/01 00:02:48;;;;;;;7.57;2.30;;;23.00;96.00;;;;;;5073264;28;20473;-75
2021/11/01 00:05:16;;;;;;;6.03;2.13;;;23.00;95.20;;;;;;5071783;28;20111;-73
2021/11/01 00:07:43;;;;;;;5.45;2.35;;;22.80;94.90;;;;;;5071862;28;20028;-73
2021/11/01 00:10:12;;;;;;;3.88;2.20;;;22.90;94.90;;;;;;5072813;28;20032;-73
2021/11/01 00:12:40;;;;;;;4.72;2.53;;;23.00;94.60;;;;;;5071765;28;20025;-73
2021/11/01 00:15:09;;;;;;;4.15;2.35;;;23.00;94.60;;;;;;5073105;28;20020;-73
2021/11/01 00:17:37;;;;;;;5.70;2.40;;;23.40;95.00;;;;;;5072678;28;20064;-73
2021/11/01 00:20:06;;;;;;;4.57;2.25;;;23.30;94.30;;;;;;5073132;28;20025;-75
2021/11/01 00:22:35;;;;;;;7.80;2.33;;;23.80;94.60;;;;;;5072068;28;20028;-75
2021/11/01 00:25:05;;;;;;;4.40;2.60;;;24.10;94.20;;;;;;5073355;28;20560;-74
2021/11/01 00:27:33;;;;;;;5.30;2.30;;;23.70;93.60;;;;;;5072954;28;20071;-73
2021/11/01 00:30:01;;;;;;;5.15;2.42;;;23.30;93.90;;;;;;5073089;28;20026;-74
2021/11/01 00:32:28;;;;;;;4.47;2.17;;;23.00;94.80;;;;;;5071393;28;20118;-74
2021/11/01 00:34:56;;;;;;;4.40;2.53;;;22.70;94.50;;;;;;5072882;28;20059;-74
2021/11/01 00:37:23;;;;;;;6.43;2.33;;;23.00;94.80;;;;;;5071769;28;20489;-74
2021/11/01 00:39:51;;;;;;;5.20;2.45;;;23.00;95.00;;;;;;5071586;28;20028;-73
2021/11/01 00:42:18;;;;;;;6.90;2.42;;;23.00;95.70;;;;;;5071596;28;20142;-74
2021/11/01 00:44:46;;;;;;;9.30;3.10;;;22.80;96.00;;;;;;5072756;28;20024;-73
2021/11/01 00:47:13;;;;;;;4.05;2.80;;;23.30;96.30;;;;;;5073049;28;20061;-74
2021/11/01 00:49:44;;;;;;;4.80;2.42;;;22.90;96.20;;;;;;5071571;28;20028;-74
2021/11/01 00:52:11;;;;;;;;;;;22.80;97.10;;;;;;5072255;28;20020;-75
2021/11/01 00:54:44;;;;;;;5.75;2.50;;;22.90;96.20;;;;;;5071759;28;19905;-74
2021/11/01 00:57:12;;;;;;;4.10;2.30;;;22.70;96.20;;;;;;5074438;28;20477;-73
2021/11/01 00:59:39;;;;;;;5.55;2.35;;;22.50;96.80;;;;;;5076937;28;20020;-74
2021/11/01 01:02:11;;;;;;;5.20;2.70;;;22.50;96.90;;;;;;5075516;28;20028;-73
2021/11/01 01:04:42;;;;;;;4.78;2.20;;;23.40;97.20;;;;;;5058542;28;20029;-74
2021/11/01 01:07:08;;;;;;;;;;;22.80;96.00;;;;;;5075721;28;20032;-73
2021/11/01 01:09:35;;;;;;;3.28;2.55;;;23.00;96.20;;;;;;5074962;28;20390;-73
2021/11/01 01:12:04;;;;;;;4.88;2.63;;;23.00;96.00;;;;;;5074813;28;20032;-74
2021/11/01 01:14:38;;;;;;;5.28;2.80;;;22.60;96.30;;;;;;5075069;28;20024;-74
2021/11/01 01:17:06;;;;;;;3.95;2.60;;;22.40;96.20;;;;;;5076144;28;20025;-74
2021/11/01 01:19:45;;;;;;;5.00;2.75;;;22.90;96.90;;;;;;5074730;28;20044;-74
2021/11/01 01:27:43;;;;;;;4.60;2.78;;;23.40;95.50;;;;;;5076025;28;20115;-74
2021/11/01 01:30:12;;;;;;;7.32;2.60;;;23.60;95.60;;;;;;5074371;28;20028;-74
2021/11/01 01:32:40;;;;;;;3.10;2.55;;;23.60;95.40;;;;;;5076040;28;20027;-75
2021/11/01 01:35:08;;;;;;;4.80;2.50;;;23.50;95.40;;;;;;5075624;28;20099;-74
2021/11/01 01:37:36;;;;;;;4.13;2.70;;;24.00;95.50;;;;;;5075902;28;20031;-74
2021/11/01 01:40:06;;;;;;;5.65;2.80;;;24.10;94.70;;;;;;5075739;28;20024;-74
2021/11/01 01:42:36;;;;;;;5.80;2.95;;;23.90;94.30;;;;;;5074363;28;20393;-73
2021/11/01 01:45:06;;;;;;;3.80;2.35;;;24.00;93.50;;;;;;5075611;28;20032;-74
2021/11/01 01:47:35;;;;;;;6.38;2.63;;;24.20;93.80;;;;;;5074337;28;20028;-74
2021/11/01 01:50:05;;;;;;;4.38;2.60;;;24.40;93.60;;;;;;5074211;28;20481;-74
2021/11/01 01:52:32;;;;;;;5.07;2.37;;;24.60;93.50;;;;;;5073976;28;20089;-74
2021/11/01 01:54:59;;;;;;;3.67;2.40;;;24.40;93.20;;;;;;5075267;28;20039;-75
2021/11/01 01:57:27;;;;;;;5.78;2.83;;;24.20;94.10;;;;;;5075228;28;20021;-75
2021/11/01 01:59:55;;;;;;;2.83;2.40;;;24.20;94.40;;;;;;5073833;28;20028;-74
2021/11/01 02:02:22;;;;;;;6.90;2.60;;;24.50;94.60;;;;;;5073430;28;20382;-73
2021/11/01 02:04:50;;;;;;;3.78;3.05;;;24.70;94.10;;;;;;5073804;28;20028;-74
2021/11/01 02:07:43;;;;;;;3.40;2.55;;;24.90;94.70;;;;;;5073445;28;20028;-75
2021/11/01 02:10:14;;;;;;;5.80;2.80;;;24.50;94.00;;;;;;5073558;28;20480;-74
2021/11/01 02:12:47;;;;;;;6.75;2.78;;;24.20;94.50;;;;;;5074176;28;20085;-74
2021/11/01 02:15:35;;;;;;;6.00;2.55;;;24.10;95.10;;;;;;5073492;28;20021;-75
2021/11/01 02:18:04;;;;;;;4.22;2.63;;;24.20;95.00;;;;;;5074795;28;20098;-74
2021/11/01 02:20:56;;;;;;;5.45;2.97;;;24.20;95.40;;;;;;5074885;28;20028;-74
2021/11/01 02:23:28;;;;;;;6.88;2.72;;;23.80;94.80;;;;;;5073674;28;20086;-75
2021/11/01 02:26:01;;;;;;;6.38;3.25;;;23.70;94.60;;;;;;5074791;28;20358;-75
2021/11/01 02:28:35;;;;;;;3.88;2.60;;;23.60;94.80;;;;;;5073348;28;20370;-75
2021/11/01 02:31:04;;;;;;;4.60;2.88;;;23.70;94.50;;;;;;5074891;28;20020;-74
2021/11/01 02:33:32;;;;;;;5.57;3.05;;;23.70;94.50;;;;;;5073352;28;20455;-75
2021/11/01 02:36:00;;;;;;;4.63;2.90;;;23.80;94.80;;;;;;5074620;28;20481;-74
2021/11/01 02:38:30;;;;;;;6.97;2.92;;;23.80;94.60;;;;;;5074585;28;20021;-74
2021/11/01 02:40:59;;;;;;;5.38;2.92;;;24.10;94.80;;;;;;5074659;28;20595;-74
2021/11/01 02:43:28;;;;;;;5.57;2.80;;;24.10;94.20;;;;;;5072925;28;20025;-75
2021/11/01 02:45:57;;;;;;;3.20;2.90;;;24.20;93.60;;;;;;5074406;28;20020;-75
2021/11/01 02:48:25;;;;;;;4.90;2.83;;;24.10;94.30;;;;;;5072778;28;20477;-74
2021/11/01 02:50:52;;;;;;;4.90;3.03;;;24.30;94.20;;;;;;5072844;28;20032;-74
2021/11/01 02:53:20;;;;;;;6.57;2.97;;;24.20;94.00;;;;;;5072949;28;20051;-74
2021/11/01 02:55:47;;;;;;;3.80;3.00;;;24.50;94.20;;;;;;5072889;28;20473;-75
2021/11/01 02:58:14;;;;;;;4.75;2.78;;;25.00;93.90;;;;;;5072416;28;20115;-75
2021/11/01 03:00:42;;;;;;;7.88;3.00;;;25.10;93.70;;;;;;5074397;28;20024;-75
2021/11/01 03:03:10;;;;;;;3.85;2.90;;;25.10;93.00;;;;;;5072629;28;20062;-76
2021/11/01 03:05:39;;;;;;;3.42;2.90;;;25.00;93.00;;;;;;5073867;28;20104;-74
2021/11/01 03:08:08;;;;;;;3.65;2.80;;;24.80;92.70;;;;;;5074006;28;20032;-76
2021/11/01 03:10:35;;;;;;;4.93;2.50;;;24.80;93.00;;;;;;5071980;28;20064;-75
2021/11/01 03:13:03;;;;;;;4.65;2.60;;;24.50;92.60;;;;;;5074036;28;20043;-75
2021/11/01 03:15:30;;;;;;;4.95;2.70;;;24.10;93.20;;;;;;5072841;28;20016;-75
2021/11/01 03:18:09;;;;;;;5.47;2.65;;;24.00;93.20;;;;;;5073638;28;20409;-77
2021/11/01 03:20:43;;;;;;;3.78;2.78;;;24.00;93.90;;;;;;5072870;28;20021;-76
2021/11/01 03:23:28;;;;;;;4.43;2.60;;;23.90;93.70;;;;;;5073746;28;20020;-76
2021/11/01 03:25:58;;;;;;;4.25;2.60;;;23.90;93.80;;;;;;5072040;28;20024;-76
2021/11/01 03:28:27;;;;;;;6.45;2.83;;;23.60;94.50;;;;;;5073672;28;20021;-76
2021/11/01 03:30:58;;;;;;;4.88;2.72;;;23.60;94.50;;;;;;5073681;28;20029;-76
2021/11/01 03:33:37;;;;;;;4.25;2.67;;;23.80;94.30;;;;;;5072140;28;20024;-76
2021/11/01 03:36:07;;;;;;;6.72;3.20;;;23.60;94.20;;;;;;5071929;28;20377;-76
2021/11/01 03:38:36;;;;;;;3.53;2.90;;;23.70;94.90;;;;;;5072034;28;20016;-77
2021/11/01 03:41:11;;;;;;;5.80;3.00;;;23.60;95.30;;;;;;5073702;28;20024;-76
2021/11/01 03:43:59;;;;;;;5.25;2.90;;;23.70;95.70;;;;;;5073528;28;20020;-77
2021/11/01 03:46:42;;;;;;;4.38;3.03;;;23.50;96.00;;;;;;5073408;28;20027;-75
2021/11/01 03:49:12;;;;;;;5.53;3.00;;;23.50;95.70;;;;;;5072497;28;20052;-76
2021/11/01 03:52:44;;;;;;;6.53;3.55;;;23.30;95.80;;;;;;5072584;28;20016;-75
2021/11/01 03:54:40;;;;;;;6.93;3.08;;;23.10;96.90;;;;;;5064276;28;20135;-76
2021/11/01 03:57:09;;;;;;;4.82;3.08;;;23.00;96.70;;;;;;5073813;28;20024;-75
2021/11/01 03:59:38;;;;;;;3.47;2.80;;;23.10;97.00;;;;;;5073957;28;20017;-74
2021/11/01 04:02:14;;;;;;;9.43;3.20;;;23.40;96.80;;;;;;5073697;28;20028;-75
2021/11/01 04:04:47;;;;;;;4.95;2.90;;;23.40;96.50;;;;;;5073719;28;20055;-74
2021/11/01 04:07:15;;;;;;;4.38;2.60;;;23.50;96.20;;;;;;5073856;28;20020;-74
2021/11/01 04:09:43;;;;;;;6.55;3.00;;;23.70;96.10;;;;;;5073315;28;20047;-74
2021/11/01 04:12:12;;;;;;;3.55;2.70;;;23.90;95.90;;;;;;5072054;28;20021;-76
2021/11/01 04:14:47;;;;;;;5.53;3.25;;;23.80;95.60;;;;;;5073493;28;20489;-76
2021/11/01 04:17:51;;;;;;;7.20;2.90;;;23.60;96.40;;;;;;5073260;28;20021;-75
2021/11/01 04:22:56;;;;;;;5.75;3.08;;;24.20;96.10;;;;;;5073481;28;20035;-74
2021/11/01 04:25:25;;;;;;;6.43;3.17;;;24.20;95.80;;;;;;5072246;28;20522;-76
2021/11/01 04:27:53;;;;;;;4.68;3.05;;;24.10;96.20;;;;;;5073633;28;20021;-75
2021/11/01 04:30:21;;;;;;;3.75;3.00;;;24.10;95.90;;;;;;5072039;28;20029;-75
2021/11/01 04:32:53;;;;;;;5.18;3.15;;;24.00;95.70;;;;;;5075467;28;20107;-75
2021/11/01 04:35:24;;;;;;;5.95;3.92;;;24.10;95.90;;;;;;5077359;28;20025;-75
2021/11/01 04:38:00;;;;;;;5.47;3.40;;;23.90;95.90;;;;;;5075794;28;20027;-75
2021/11/01 04:53:59;;;;;;;5.18;3.00;;;23.60;96.90;;;;;;5077278;28;20527;-77
2021/11/01 04:56:27;;;;;;;4.55;2.90;;;23.40;97.30;;;;;;5075969;28;20047;-78
2021/11/01 04:58:56;;;;;;;6.68;3.30;;;23.20;97.70;;;;;;5075461;28;20102;-78
2021/11/01 05:01:59;;;;;;;6.15;3.15;;;23.00;97.70;;;;;;5077282;28;20017;-78
2021/11/01 05:04:23;;;;;;;6.88;3.40;;;23.10;98.20;;;;;;5075852;28;20490;-78
2021/11/01 05:06:54;;;;;;;5.57;3.30;;;23.10;97.90;;;;;;5075513;28;20020;-78
2021/11/01 05:09:59;;;;;;;6.47;3.25;;;23.00;97.90;;;;;;5059060;28;20116;-79
2021/11/01 05:12:48;;;;;;;4.65;3.15;;;22.70;98.40;;;;;;5074425;28;20025;-78
2021/11/01 05:15:55;;;;;;;3.80;2.80;;;22.60;98.30;;;;;;5075327;28;20111;-76
2021/11/01 05:18:03;;;;;;;5.32;2.72;;;22.60;98.30;;;;;;5073337;28;20043;-76
2021/11/01 05:20:39;;;;;;;6.07;2.70;;;22.70;98.20;;;;;;5075198;28;20115;-77
2021/11/01 05:23:15;;;;;;;5.32;2.88;;;22.60;98.50;;;;;;5074908;28;20033;-76
2021/11/01 05:26:04;;;;;;;5.07;2.72;;;22.80;98.20;;;;;;5074748;28;20051;-77
2021/11/01 05:28:44;;;;;;;4.05;2.50;;;22.80;98.20;;;;;;5076389;28;20461;-78
2021/11/01 05:31:22;;;;;;;5.82;2.83;;;23.00;98.30;;;;;;5076340;28;20052;-76
2021/11/01 05:36:20;;;;;;;;;;;23.20;98.40;;;;;;5076566;28;20036;-77
2021/11/01 05:38:49;;;;;;;9.00;2.85;;;23.20;98.60;;;;;;5074823;28;19974;-77
2021/11/01 05:41:18;;;;;;;6.03;2.92;;;23.10;98.70;;;;;;5076169;28;20028;-78
2021/11/01 05:43:47;;;;;;;3.63;2.88;;;23.10;98.10;;;;;;5073878;28;20434;-78
2021/11/01 05:46:15;;;;;;;5.72;3.05;;;23.00;98.80;;;;;;5074496;28;20020;-77
2021/11/01 05:48:54;;;;;;;5.78;3.05;;;22.80;98.90;;;;;;5075234;28;20390;-78
2021/11/01 05:51:23;;;;;;;5.22;2.95;;;22.80;98.90;;;;;;5074686;28;20028;-78
2021/11/01 05:53:55;;;;;;;6.55;3.30;;;22.60;99.20;;;;;;5073950;28;20025;-79
2021/11/01 06:14:36;;;;;;;9.73;3.20;;;21.70;99.90;;;;;;5075175;28;20032;-76
2021/11/01 06:17:05;;;;;;;4.75;3.10;;;21.60;99.90;;;;;;5074777;28;20013;-77
2021/11/01 06:19:32;;;;;;;4.93;2.95;;;21.60;99.90;;;;;;5074226;28;20025;-78
2021/11/01 06:21:59;;;;;;;8.77;2.92;;;21.60;99.90;;;;;;5075242;28;20039;-75
2021/11/01 06:27:11;;;;;;;8.82;3.40;;;21.70;99.90;;;;;;5075082;28;20494;-75
2021/11/01 06:40:37;;;;;;;6.35;3.53;;;21.40;99.90;;;;;;5074518;28;20047;-74
2021/11/01 06:43:09;;;;;;;5.50;3.40;;;21.20;99.90;;;;;;5074471;28;20048;-74
2021/11/01 06:53:56;;;;;;;5.93;3.42;;;20.80;99.90;;;;;;5074613;28;20070;-73
2021/11/01 07:15:44;;;;;;;4.20;3.80;;;20.60;99.90;;;;;;5074037;28;20396;-74
2021/11/01 07:20:51;;;;;;;7.32;3.60;;;20.60;99.90;;;;;;5074287;28;20099;-74
2021/11/01 08:36:50;;;;;;;8.07;3.90;;;19.60;99.90;;;;;;5077719;28;20052;-75
2021/11/01 09:19:50;;;;;;;7.15;6.15;;;19.30;99.90;;;;;;5059480;28;20045;-75
2021/11/01 09:24:54;;;;;;;9.05;5.35;;;19.30;99.90;;;;;;5076796;28;20021;-76
2021/11/01 09:27:26;;;;;;;8.75;6.43;;;19.30;99.90;;;;;;5075499;28;20046;-74
2021/11/01 09:30:33;;;;;;;9.18;6.00;;;19.30;99.90;;;;;;5076374;28;20048;-74
2021/11/01 09:35:59;;;;;;;7.07;6.10;;;19.30;99.90;;;;;;5076076;28;20078;-76
2021/11/01 09:41:08;;;;;;;12.60;7.18;;;19.20;99.90;;;;;;5075970;28;20028;-77
2021/11/01 09:43:38;;;;;;;7.05;6.45;;;19.20;99.90;;;;;;5075215;28;20025;-75
2021/11/01 09:46:11;;;;;;;8.20;6.50;;;19.20;99.90;;;;;;5058287;28;20029;-78
2021/11/01 09:48:40;;;;;;;9.88;6.72;;;19.20;99.90;;;;;;5076328;28;20427;-76
2021/11/01 09:51:08;;;;;;;12.93;8.00;;;19.10;99.90;;;;;;5076298;28;20113;-77
2021/11/01 09:53:47;;;;;;;9.80;7.38;;;19.10;99.90;;;;;;5076231;28;20492;-77
2021/11/01 09:56:41;;;;;;;10.15;7.80;;;19.10;99.90;;;;;;5075290;28;20116;-77
2021/11/01 09:59:12;;;;;;;10.02;7.65;;;19.10;99.90;;;;;;5076380;28;20092;-77
2021/11/01 10:01:45;;;;;;;10.00;7.80;;;19.10;99.90;;;;;;5075095;28;20042;-78
2021/11/01 10:04:18;;;;;;;10.07;6.97;;;19.10;99.90;;;;;;5076276;28;20032;-77
2021/11/01 10:06:53;;;;;;;11.65;7.60;;;19.10;99.90;;;;;;5074891;28;20032;-76
2021/11/01 10:09:30;;;;;;;8.25;7.47;;;19.10;99.90;;;;;;5076486;28;20087;-76
2021/11/01 10:11:58;;;;;;;8.25;7.10;;;19.10;99.90;;;;;;5076058;28;20020;-79
2021/11/01 10:14:26;;;;;;;10.90;8.00;;;19.00;99.90;;;;;;5075043;28;20430;-78
2021/11/01 10:19:43;;;;;;;9.23;7.75;;;19.10;99.90;;;;;;5076009;28;20087;-75
2021/11/01 10:22:23;;;;;;;;;;;19.00;99.90;;;;;;5074872;28;20045;-76
2021/11/01 10:24:54;;;;;;;9.07;8.20;;;19.00;99.90;;;;;;5076020;28;19908;-76
2021/11/01 10:27:36;;;;;;;12.13;8.10;;;19.00;99.90;;;;;;5075918;28;20035;-77
2021/11/01 10:30:08;;;;;;;9.10;8.20;;;19.00;99.90;;;;;;5075254;28;20109;-77
2021/11/01 10:32:37;;;;;;;10.18;8.35;;;19.00;99.90;;;;;;5075766;28;20024;-77
2021/11/01 10:35:16;;;;;;;11.27;8.20;;;19.00;99.90;;;;;;5075803;28;20020;-77
2021/11/01 10:38:29;;;;;;;10.82;8.55;;;19.00;99.90;;;;;;5074319;28;20029;-77
2021/11/01 11:22:18;;;;;;;9.45;8.63;;;18.90;99.90;;;;;;5074975;28;20028;-76
2021/11/01 11:25:05;;;;;;;9.90;8.70;;;18.90;99.90;;;;;;5059747;28;20039;-78
2021/11/01 11:31:22;;;;;;;9.32;8.57;;;18.90;99.90;;;;;;5074600;28;20108;-78
2021/11/01 11:47:46;;;;;;;9.75;8.38;;;18.80;99.90;;;;;;5074901;28;20031;-79
2021/11/01 11:50:23;;;;;;;9.50;8.05;;;18.80;99.90;;;;;;5074692;28;20032;-77
2021/11/01 11:52:52;;;;;;;10.88;9.15;;;18.70;99.90;;;;;;5057562;28;20033;-77
2021/11/01 11:55:29;;;;;;;10.40;7.70;;;18.80;99.90;;;;;;5073669;28;20021;-78
2021/11/01 11:58:04;;;;;;;9.00;7.57;;;18.80;99.90;;;;;;5073401;28;20081;-78
2021/11/01 12:00:37;;;;;;;8.88;7.60;;;18.70;99.90;;;;;;5073388;28;20032;-78
2021/11/01 12:03:19;;;;;;;11.52;8.30;;;18.80;99.90;;;;;;5073319;28;20083;-77
2021/11/01 12:06:00;;;;;;;9.95;8.18;;;18.70;99.90;;;;;;5073332;28;20032;-78
2021/11/01 12:08:54;;;;;;;9.80;8.80;;;18.70;99.90;;;;;;5073125;28;20044;-77
2021/11/01 12:12:06;;;;;;;9.77;8.60;;;18.80;99.90;;;;;;5073627;28;20041;-77
2021/11/01 12:14:31;;;;;;;11.32;8.70;;;18.70;99.90;;;;;;5073316;28;20028;-78
2021/11/01 12:17:05;;;;;;;8.70;7.65;;;18.70;99.90;;;;;;5073531;28;20020;-77
2021/11/01 12:19:34;;;;;;;11.75;8.40;;;18.70;99.90;;;;;;5073659;28;20409;-77
2021/11/01 12:22:06;;;;;;;9.10;8.02;;;18.70;99.90;;;;;;5073497;28;20028;-77
2021/11/01 12:24:52;;;;;;;10.55;7.47;;;18.70;99.90;;;;;;5074369;28;20121;-77
2021/11/01 12:27:28;;;;;;;9.35;7.70;;;18.70;99.90;;;;;;5074814;28;20054;-77
2021/11/01 12:29:56;;;;;;;9.75;7.80;;;18.70;99.90;;;;;;5073298;28;20025;-78
2021/11/01 12:32:23;;;;;;;8.52;7.70;;;18.60;99.90;;;;;;5074484;28;20373;-77
2021/11/01 12:37:32;;;;;;;9.98;8.52;;;18.60;99.90;;;;;;5074530;28;20025;-78
2021/11/01 12:40:51;;;;;;;8.77;7.88;;;18.60;99.90;;;;;;5074275;28;20027;-78
2021/11/01 12:57:27;;;;;;;10.23;8.50;;;18.50;99.90;;;;;;5078580;28;20066;-77
2021/11/01 12:59:56;;;;;;;10.13;7.68;;;18.50;99.90;;;;;;5076463;28;20451;-78
2021/11/01 13:02:29;;;;;;;12.25;8.20;;;18.50;99.90;;;;;;5077688;28;20082;-76
2021/11/01 13:04:59;;;;;;;9.48;7.95;;;18.40;99.90;;;;;;5077626;28;20031;-77
2021/11/01 13:10:22;;;;;;;8.93;7.70;;;18.30;99.90;;;;;;5077738;28;20029;-77
2021/11/01 13:18:21;;;;;;;10.05;7.57;;;18.30;99.90;;;;;;5077670;28;20072;-78
2021/11/01 13:20:57;;;;;;;8.35;7.50;;;18.20;99.90;;;;;;5076134;28;20140;-77
2021/11/01 13:23:27;;;;;;;8.80;7.90;;;18.20;99.90;;;;;;5076001;28;20078;-77
2021/11/01 13:36:52;;;;;;;10.13;8.38;;;18.00;99.90;;;;;;5076985;28;20025;-77
2021/11/01 13:39:29;;;;;;;8.50;7.90;;;17.90;99.90;;;;;;5075793;28;20025;-77
2021/11/01 13:41:56;;;;;;;10.63;8.18;;;17.90;99.90;;;;;;5077167;28;20409;-77
2021/11/01 13:44:26;;;;;;;9.02;8.25;;;17.90;99.90;;;;;;5076945;28;20491;-76
2021/11/01 13:47:07;;;;;;;8.88;7.97;;;17.80;99.90;;;;;;5075734;28;20504;-77
2021/11/01 13:49:37;;;;;;;8.80;8.02;;;17.80;99.90;;;;;;5076542;28;20373;-77
2021/11/01 13:52:20;;;;;;;8.90;8.20;;;17.70;99.90;;;;;;5075627;28;20032;-78
2021/11/01 13:54:59;;;;;;;10.85;8.55;;;17.70;99.90;;;;;;5075429;28;20028;-77
2021/11/01 13:57:30;;;;;;;11.00;8.93;;;17.60;99.90;;;;;;5076762;28;20481;-76
2021/11/01 14:00:20;;;;;;;11.20;8.20;;;17.60;99.90;;;;;;5076325;28;20052;-76
2021/11/01 14:11:26;;;;;;;8.55;7.85;;;17.40;99.90;;;;;;5076039;28;20508;-77
2021/11/01 14:19:10;;;;;;;9.75;8.23;;;17.40;99.90;;;;;;5076043;28;20394;-77
2021/11/01 14:27:51;;;;;;;8.85;8.13;;;17.30;99.90;;;;;;5076209;28;20043;-77
2021/11/01 14:33:25;;;;;;;9.50;8.70;;;17.30;99.90;;;;;;5075829;28;20083;-76
2021/11/01 14:36:23;;;;;;;9.52;8.57;;;17.30;99.90;;;;;;5075025;28;20111;-76
2021/11/01 14:58:44;;;;;;;8.55;7.75;;;17.20;99.90;;;;;;5075406;28;20021;-77
2021/11/01 15:05:05;;;;;;;8.70;7.97;;;17.20;99.90;;;;;;5075271;28;20035;-76
2021/11/01 15:07:10;;;;;;;8.48;7.65;;;17.10;99.90;;;;;;5072055;28;20035;-76
2021/11/01 15:12:50;;;;;;;8.68;7.88;;;17.00;99.90;;;;;;5074274;28;20555;-77
2021/11/01 15:15:56;;;;;;;8.75;7.97;;;17.00;99.90;;;;;;5074043;28;20031;-77
2021/11/01 15:26:51;;;;;;;9.88;7.95;;;16.80;99.90;;;;;;5075122;28;20032;-77
2021/11/01 16:16:13;;;;;;;9.93;8.60;;;16.40;99.90;;;;;;5073928;28;20028;-77
2021/11/01 16:18:10;;;;;;;9.85;8.50;;;16.40;99.90;;;;;;5070168;28;20075;-77
2021/11/01 16:20:37;;;;;;;9.13;8.23;;;16.40;99.90;;;;;;5072128;28;20024;-78
2021/11/01 16:25:39;;;;;;;9.60;8.73;;;16.30;99.90;;;;;;5073691;28;20440;-77
2021/11/01 16:28:07;;;;;;;12.73;9.40;;;16.30;99.90;;;;;;5074540;28;20021;-76
2021/11/01 16:30:36;;;;;;;10.95;8.93;;;16.20;99.90;;;;;;5075898;28;20039;-76
2021/11/01 16:33:07;;;;;;;9.38;8.68;;;16.20;99.90;;;;;;5075906;28;20024;-77
2021/11/01 16:35:40;;;;;;;9.93;9.10;;;16.10;99.90;;;;;;5075828;28;20024;-76
2021/11/01 16:38:20;;;;;;;9.90;8.90;;;16.10;99.90;;;;;;5077156;28;20115;-77
2021/11/01 16:40:51;;;;;;;9.70;8.80;;;16.00;99.90;;;;;;5075877;28;20028;-76
2021/11/01 16:43:20;;;;;;;9.93;8.95;;;15.90;99.90;;;;;;5075876;28;20115;-76
2021/11/01 16:45:51;;;;;;;9.52;8.77;;;15.80;99.90;;;;;;5077153;28;20107;-76
2021/11/01 16:48:22;;;;;;;10.10;9.20;;;15.80;99.90;;;;;;5059803;28;20037;-76
2021/11/01 16:50:54;;;;;;;10.48;9.45;;;15.80;99.90;;;;;;5075326;28;20017;-76
2021/11/01 16:53:22;;;;;;;12.05;9.70;;;15.70;99.90;;;;;;5076712;28;20059;-76
2021/11/01 16:55:51;;;;;;;10.30;9.15;;;15.70;99.90;;;;;;5075719;28;20043;-77
2021/11/01 16:58:38;;;;;;;10.50;9.50;;;15.70;99.90;;;;;;5075570;28;20389;-77
2021/11/01 17:01:11;;;;;;;10.73;9.93;;;15.70;99.90;;;;;;5075414;28;20032;-78
2021/11/01 17:06:53;;;;;;;14.75;10.23;;;15.70;99.90;;;;;;5076537;28;20024;-77
2021/11/01 17:09:38;;;;;;;11.07;9.95;;;15.60;99.90;;;;;;5070722;28;20387;-77
2021/11/01 17:24:10;;;;;;;10.63;9.82;;;15.50;99.90;;;;;;5076578;28;20035;-76
2021/11/01 17:26:45;;;;;;;11.70;10.70;;;15.40;99.90;;;;;;5071436;28;20036;-77
2021/11/01 17:29:22;;;;;;;11.43;10.27;;;15.40;99.90;;;;;;5072070;28;20520;-77
2021/11/01 17:37:17;;;;;;;11.15;10.43;;;15.40;99.90;;;;;;5076175;28;20020;-77
2021/11/01 18:42:14;;;;;;;12.52;11.50;;;15.50;99.90;;;;;;5074762;28;20067;-76
2021/11/01 18:52:16;;;;;;;12.68;11.75;;;15.50;99.90;;;;;;5074668;28;20043;-77
2021/11/01 18:54:50;;;;;;;13.50;12.10;;;15.60;99.90;;;;;;5073468;28;20485;-77
2021/11/01 18:57:19;;;;;;;13.05;11.77;;;15.60;99.90;;;;;;5073323;28;20028;-77
2021/11/01 18:59:50;;;;;;;12.98;11.63;;;15.70;99.90;;;;;;5073177;28;20454;-76
2021/11/01 19:02:37;;;;;;;;;;;15.70;99.90;;;;;;5073714;28;20048;-76
2021/11/01 19:05:18;;;;;;;12.70;11.63;;;15.80;99.90;;;;;;5057720;28;19908;-77
2021/11/01 19:11:20;;;;;;;12.70;11.63;;;15.80;99.90;;;;;;5074468;28;20474;-77
2021/11/01 19:14:23;;;;;;;13.20;11.95;;;15.90;99.90;;;;;;5066736;28;20253;-78
2021/11/01 20:04:02;;;;;;;12.13;11.32;;;17.10;99.90;;;;;;5076207;28;20043;-74
2021/11/01 21:24:49;;;;;;;11.98;11.38;;;20.60;99.90;;;;;;5076385;28;20446;-77
2021/11/01 21:27:21;;;;;;;11.52;10.82;;;20.60;99.90;;;;;;5075796;28;20424;-76
2021/11/01 21:29:50;;;;;;;11.65;10.90;;;20.70;99.90;;;;;;5075436;28;20028;-76
2021/11/01 21:32:18;;;;;;;11.90;10.90;;;20.80;99.90;;;;;;5075692;28;20524;-77
2021/11/01 21:35:04;;;;;;;11.40;10.52;;;20.80;99.90;;;;;;5076309;28;20500;-78
2021/11/01 21:37:31;;;;;;;11.40;10.40;;;21.00;99.90;;;;;;5075940;28;20025;-76
2021/11/01 21:40:00;;;;;;;10.60;9.90;;;21.10;99.90;;;;;;5075152;28;20470;-76
2021/11/01 21:42:28;;;;;;;10.93;10.07;;;21.10;99.90;;;;;;5074187;28;20024;-76
2021/11/01 21:44:56;;;;;;;9.88;9.23;;;21.20;99.90;;;;;;5074379;28;20063;-76
2021/11/01 21:47:24;;;;;;;11.30;10.35;;;21.30;99.90;;;;;;5075066;28;20477;-76
2021/11/01 21:49:51;;;;;;;11.63;10.70;;;21.50;99.90;;;;;;5076829;28;20025;-76
2021/11/01 21:52:19;;;;;;;11.18;10.05;;;21.70;99.90;;;;;;5075381;28;20025;-76
2021/11/01 21:54:52;;;;;;;9.80;9.15;;;21.80;99.90;;;;;;5075906;28;20032;-76
2021/11/01 22:00:12;;;;;;;23.02;11.93;;;21.10;99.90;;;;;;5076011;28;20032;-77
2021/11/01 22:22:09;;;;;;;7.05;6.40;;;22.70;99.90;;;;;;5077276;28;20173;-77
2021/11/01 22:40:42;;;;;;;4.93;4.18;;;23.00;99.90;;;;;;5078569;28;20031;-76
2021/11/01 22:46:36;;;;;;;4.20;3.70;;;23.00;99.90;;;;;;5066495;28;20040;-76
2021/11/01 22:57:15;;;;;;;4.10;3.60;;;23.20;99.90;;;;;;5076028;28;20032;-76
2021/11/01 22:59:43;;;;;;;3.67;3.33;;;23.40;99.90;;;;;;5074938;28;20439;-76
2021/11/01 23:02:10;;;;;;;3.90;3.30;;;23.70;99.90;;;;;;5076476;28;20443;-76
2021/11/01 23:04:52;;;;;;;5.53;3.20;;;23.70;99.90;;;;;;5075455;28;20055;-77
2021/11/01 23:32:06;;;;;;;3.13;2.83;;;24.10;99.90;;;;;;5074893;28;20057;-77
2021/11/01 23:34:34;;;;;;;3.78;2.63;;;23.90;99.90;;;;;;5077560;28;20049;-76
2021/11/01 23:37:01;;;;;;;5.60;2.88;;;23.80;99.90;;;;;;5075057;28;20097;-76
2021/11/01 23:39:28;;;;;;;3.35;2.70;;;23.90;99.90;;;;;;5076789;28;20029;-75
2021/11/01 23:41:56;;;;;;;3.33;2.60;;;24.00;99.60;;;;;;5078513;28;20013;-75
2021/11/01 23:44:24;;;;;;;3.78;2.70;;;24.10;99.60;;;;;;5075273;28;20108;-76
2021/11/01 23:46:55;;;;;;;5.15;2.90;;;24.30;99.70;;;;;;5076396;28;20115;-76
2021/11/01 23:49:22;;;;;;;3.45;2.50;;;24.50;99.10;;;;;;5075704;28;20116;-75
2021/11/01 23:52:00;;;;;;;2.40;2.20;;;24.50;98.90;;;;;;5077381;28;20028;-75
2021/11/01 23:54:39;;;;;;;2.40;2.20;;;24.50;99.00;;;;;;5077751;28;20019;-76
2021/11/01 23:57:07;;;;;;;4.45;2.40;;;24.70;98.80;;;;;;5077345;28;20021;-75
2021/11/01 23:59:35;;;;;;;2.47;2.25;;;24.60;98.20;;;;;;5078472;28;20465;-76
